createdAt,value
2022-10-21T00:00:27.555Z,15.60
2022-10-21T00:03:13.988Z,15.70
2022-10-21T00:06:00.472Z,15.60
2022-10-21T00:08:47.047Z,15.70
2022-10-21T00:11:35.367Z,15.70
2022-10-21T00:14:22.005Z,15.70
2022-10-21T00:17:08.704Z,15.70
2022-10-21T00:19:55.025Z,15.60
2022-10-21T00:22:41.773Z,15.60
2022-10-21T00:25:28.172Z,15.60
2022-10-21T00:28:16.031Z,15.60
2022-10-21T00:31:02.989Z,15.60
2022-10-21T00:33:49.564Z,15.50
2022-10-21T00:36:36.004Z,15.50
2022-10-21T00:39:22.358Z,15.60
2022-10-21T00:42:15.110Z,15.70
2022-10-21T00:45:19.143Z,15.70
2022-10-21T00:48:09.432Z,15.80
2022-10-21T00:50:59.652Z,15.60
2022-10-21T00:53:49.689Z,15.60
2022-10-21T00:56:37.465Z,15.50
2022-10-21T00:59:27.569Z,15.50
2022-10-21T01:02:15.565Z,15.50
2022-10-21T01:05:03.858Z,15.40
2022-10-21T01:07:51.068Z,15.20
2022-10-21T01:10:38.809Z,15.10
2022-10-21T01:13:31.214Z,15.10
2022-10-21T01:16:23.613Z,15.00
2022-10-21T01:19:28.224Z,15.00
2022-10-21T01:22:26.541Z,15.00
2022-10-21T01:25:30.784Z,15.10
2022-10-21T01:28:21.716Z,15.20
2022-10-21T01:31:12.956Z,15.30
2022-10-21T01:34:01.796Z,15.30
2022-10-21T01:36:51.500Z,15.20
2022-10-21T01:39:40.883Z,15.30
2022-10-21T01:42:30.575Z,15.40
2022-10-21T01:45:20.807Z,15.50
2022-10-21T01:48:09.272Z,15.50
2022-10-21T01:50:57.382Z,15.50
2022-10-21T01:53:46.151Z,15.40
2022-10-21T01:56:33.004Z,15.30
2022-10-21T01:59:20.813Z,15.30
2022-10-21T02:02:07.925Z,15.20
2022-10-21T02:04:57.667Z,15.20
2022-10-21T02:07:44.259Z,15.10
2022-10-21T02:10:33.146Z,15.10
2022-10-21T02:13:23.743Z,15.20
2022-10-21T02:16:10.908Z,15.20
2022-10-21T02:18:57.340Z,15.30
2022-10-21T02:21:46.252Z,15.40
2022-10-21T02:24:36.336Z,15.50
2022-10-21T02:27:23.663Z,15.50
2022-10-21T02:30:10.902Z,15.50
2022-10-21T02:33:01.178Z,15.50
2022-10-21T02:35:54.426Z,15.50
2022-10-21T02:38:44.870Z,15.50
2022-10-21T02:41:32.121Z,15.60
2022-10-21T02:44:18.462Z,15.70
2022-10-21T02:47:05.460Z,15.60
2022-10-21T02:49:52.214Z,15.60
2022-10-21T02:52:38.290Z,15.50
2022-10-21T02:55:26.318Z,15.50
2022-10-21T02:58:12.537Z,15.50
2022-10-21T03:00:59.708Z,15.40
2022-10-21T03:03:45.954Z,15.40
2022-10-21T03:06:32.451Z,15.40
2022-10-21T03:09:18.862Z,15.40
2022-10-21T03:12:06.636Z,15.40
2022-10-21T03:14:52.778Z,15.50
2022-10-21T03:17:39.358Z,15.50
2022-10-21T03:20:26.052Z,15.50
2022-10-21T03:23:12.477Z,15.60
2022-10-21T03:25:58.859Z,15.70
2022-10-21T03:28:46.699Z,15.70
2022-10-21T03:31:33.188Z,15.70
2022-10-21T03:34:19.667Z,15.60
2022-10-21T03:37:05.888Z,15.50
2022-10-21T03:39:52.296Z,15.60
2022-10-21T03:42:38.809Z,15.70
2022-10-21T03:45:27.042Z,15.70
2022-10-21T03:48:13.292Z,15.80
2022-10-21T03:50:59.655Z,15.90
2022-10-21T03:53:45.827Z,15.90
2022-10-21T03:56:32.327Z,16.00
2022-10-21T03:59:18.729Z,15.80
2022-10-21T04:02:06.799Z,15.80
2022-10-21T04:04:53.468Z,15.90
2022-10-21T04:07:40.159Z,15.90
2022-10-21T04:10:26.428Z,15.80
2022-10-21T04:13:13.098Z,15.70
2022-10-21T04:15:59.709Z,15.70
2022-10-21T04:18:47.435Z,15.50
2022-10-21T04:21:33.781Z,15.50
2022-10-21T04:24:20.176Z,15.50
2022-10-21T04:27:06.410Z,15.60
2022-10-21T04:29:52.870Z,15.60
2022-10-21T04:32:39.527Z,15.60
2022-10-21T04:35:27.537Z,15.80
2022-10-21T04:38:13.996Z,15.90
2022-10-21T04:41:01.743Z,15.90
2022-10-21T04:43:48.126Z,15.90
2022-10-21T04:46:34.736Z,15.90
2022-10-21T04:49:21.148Z,15.80
2022-10-21T04:52:08.968Z,15.90
2022-10-21T04:54:55.038Z,15.90
2022-10-21T04:57:42.649Z,15.90
2022-10-21T05:00:28.827Z,16.00
2022-10-21T05:03:15.321Z,15.90
2022-10-21T05:06:01.805Z,15.80
2022-10-21T05:08:49.542Z,15.90
2022-10-21T05:11:36.093Z,15.90
2022-10-21T05:14:22.947Z,15.90
2022-10-21T05:17:09.408Z,16.00
2022-10-21T05:19:55.828Z,15.90
2022-10-21T05:22:42.555Z,15.90
2022-10-21T05:25:33.309Z,15.90
2022-10-21T05:28:20.677Z,15.90
2022-10-21T05:31:07.124Z,15.90
2022-10-21T05:33:53.686Z,15.80
2022-10-21T05:36:40.019Z,15.80
2022-10-21T05:39:26.724Z,15.80
2022-10-21T05:42:14.227Z,15.90
2022-10-21T05:45:00.415Z,15.80
2022-10-21T05:47:46.888Z,15.90
2022-10-21T05:50:33.274Z,15.90
2022-10-21T05:53:19.705Z,16.00
2022-10-21T05:56:08.039Z,16.00
2022-10-21T05:58:55.596Z,16.00
2022-10-21T06:01:41.988Z,16.00
2022-10-21T06:04:28.426Z,15.90
2022-10-21T06:07:14.937Z,15.80
2022-10-21T06:10:01.360Z,15.70
2022-10-21T06:12:47.827Z,15.60
2022-10-21T06:15:36.909Z,15.50
2022-10-21T06:18:23.381Z,15.30
2022-10-21T06:21:09.963Z,15.20
2022-10-21T06:23:56.201Z,15.20
2022-10-21T06:26:42.642Z,15.20
2022-10-21T06:29:29.125Z,15.20
2022-10-21T06:32:17.089Z,15.20
2022-10-21T06:35:03.572Z,15.20
2022-10-21T06:37:50.013Z,15.20
2022-10-21T06:40:36.565Z,15.30
2022-10-21T06:46:15.705Z,15.40
2022-10-21T06:49:03.183Z,15.40
2022-10-21T06:51:49.944Z,15.60
2022-10-21T06:54:36.288Z,15.70
2022-10-21T06:57:22.583Z,15.60
2022-10-21T07:00:09.804Z,15.70
2022-10-21T07:02:56.192Z,15.60
2022-10-21T07:05:43.919Z,15.50
2022-10-21T07:08:46.258Z,15.70
2022-10-21T07:11:33.461Z,15.80
2022-10-21T07:14:19.961Z,15.80
2022-10-21T07:17:06.633Z,15.80
2022-10-21T07:19:52.783Z,15.90
2022-10-21T07:22:40.642Z,15.90
2022-10-21T07:25:26.963Z,15.90
2022-10-21T07:28:13.448Z,16.00
2022-10-21T07:30:59.976Z,16.00
2022-10-21T07:33:46.509Z,16.10
2022-10-21T07:36:33.807Z,16.10
2022-10-21T07:39:23.109Z,16.20
2022-10-21T07:42:09.774Z,16.20
2022-10-21T07:44:59.340Z,16.30
2022-10-21T07:47:45.684Z,16.30
2022-10-21T07:50:32.087Z,16.30
2022-10-21T07:53:19.432Z,16.40
2022-10-21T07:56:08.728Z,16.30
2022-10-21T07:58:55.590Z,16.20
2022-10-21T08:01:44.416Z,16.30
2022-10-21T08:04:33.263Z,16.30
2022-10-21T08:07:19.460Z,16.40
2022-10-21T08:10:06.272Z,16.40
2022-10-21T08:12:54.079Z,16.50
2022-10-21T08:15:42.489Z,16.40
2022-10-21T08:18:28.836Z,16.40
2022-10-21T08:21:14.907Z,16.30
2022-10-21T08:24:02.745Z,16.20
2022-10-21T08:26:49.425Z,16.30
2022-10-21T08:29:39.239Z,16.10
2022-10-21T08:32:26.754Z,16.10
2022-10-21T08:35:13.225Z,16.10
2022-10-21T08:37:59.352Z,16.10
2022-10-21T08:40:47.273Z,16.10
2022-10-21T08:43:35.649Z,16.10
2022-10-21T08:46:25.203Z,16.10
2022-10-21T08:49:14.868Z,16.20
2022-10-21T08:52:03.319Z,16.30
2022-10-21T08:54:52.493Z,16.30
2022-10-21T08:57:39.368Z,16.40
2022-10-21T09:00:28.793Z,16.40
2022-10-21T09:03:25.008Z,16.50
2022-10-21T09:06:18.505Z,16.40
2022-10-21T09:09:11.230Z,16.40
2022-10-21T09:12:01.341Z,16.40
2022-10-21T09:14:57.255Z,16.40
2022-10-21T09:17:57.432Z,16.40
2022-10-21T09:20:55.996Z,16.40
2022-10-21T09:23:52.411Z,16.40
2022-10-21T09:26:41.489Z,16.40
2022-10-21T09:29:29.608Z,16.40
2022-10-21T09:32:18.076Z,16.40
2022-10-21T09:35:06.899Z,16.40
2022-10-21T09:37:58.420Z,16.50
2022-10-21T09:40:45.330Z,16.40
2022-10-21T09:43:31.897Z,16.30
2022-10-21T09:46:18.740Z,16.30
2022-10-21T09:49:41.569Z,16.40
2022-10-21T09:52:12.523Z,16.50
2022-10-21T09:55:00.341Z,16.50
2022-10-21T09:57:49.281Z,16.50
2022-10-21T10:00:42.708Z,16.50
2022-10-21T10:03:32.810Z,16.50
2022-10-21T10:06:40.263Z,16.60
2022-10-21T10:09:27.622Z,16.60
2022-10-21T10:12:16.208Z,16.60
2022-10-21T10:15:25.829Z,16.60
2022-10-21T10:18:21.328Z,16.70
2022-10-21T10:21:10.771Z,16.80
2022-10-21T10:23:57.160Z,17.00
2022-10-21T10:26:43.971Z,17.10
2022-10-21T10:29:31.593Z,17.20
2022-10-21T10:32:18.040Z,17.40
2022-10-21T10:35:06.051Z,17.50
2022-10-21T10:37:53.030Z,17.50
2022-10-21T10:40:42.222Z,17.60
2022-10-21T10:43:30.070Z,17.60
2022-10-21T10:46:24.125Z,17.50
2022-10-21T10:49:21.274Z,17.40
2022-10-21T10:52:15.233Z,17.40
2022-10-21T10:55:17.082Z,17.40
2022-10-21T10:58:12.452Z,17.30
2022-10-21T11:01:01.778Z,17.40
2022-10-21T11:03:53.636Z,17.60
2022-10-21T11:06:43.412Z,17.50
2022-10-21T11:09:32.328Z,17.70
2022-10-21T11:12:20.686Z,17.70
2022-10-21T11:15:08.304Z,17.80
2022-10-21T11:18:00.499Z,17.80
2022-10-21T11:20:54.583Z,17.80
2022-10-21T11:23:57.840Z,18.00
2022-10-21T11:26:47.294Z,18.00
2022-10-21T11:29:37.773Z,17.90
2022-10-21T11:32:28.906Z,17.90
2022-10-21T11:35:17.773Z,18.00
2022-10-21T11:38:13.397Z,18.00
2022-10-21T11:41:02.741Z,18.10
2022-10-21T11:43:50.720Z,18.10
2022-10-21T11:46:41.254Z,18.10
2022-10-21T11:49:37.220Z,18.20
2022-10-21T11:52:29.651Z,18.20
2022-10-21T11:55:30.899Z,18.30
2022-10-21T11:58:24.283Z,18.30
2022-10-21T12:01:16.013Z,18.10
2022-10-21T12:04:12.542Z,18.10
2022-10-21T12:07:11.576Z,18.20
2022-10-21T12:10:00.624Z,18.30
2022-10-21T12:12:47.756Z,18.30
2022-10-21T12:15:38.873Z,18.30
2022-10-21T12:18:27.437Z,18.40
2022-10-21T12:21:16.575Z,18.50
2022-10-21T12:24:05.509Z,18.40
2022-10-21T12:26:53.637Z,18.40
2022-10-21T12:29:47.820Z,18.50
2022-10-21T12:32:39.659Z,18.50
2022-10-21T12:35:26.984Z,18.40
2022-10-21T12:38:21.872Z,18.50
2022-10-21T12:41:22.078Z,18.50
2022-10-21T12:44:15.816Z,18.70
2022-10-21T12:47:03.652Z,18.80
2022-10-21T12:50:05.319Z,18.90
2022-10-21T12:53:06.100Z,19.00
2022-10-21T12:55:54.083Z,19.00
2022-10-21T12:58:41.537Z,19.10
2022-10-21T13:01:35.601Z,19.10
2022-10-21T13:04:40.821Z,19.00
2022-10-21T13:07:38.246Z,19.00
2022-10-21T13:10:27.603Z,19.00
2022-10-21T13:13:31.668Z,18.80
2022-10-21T13:16:36.579Z,18.80
2022-10-21T13:19:33.663Z,18.90
2022-10-21T13:22:21.361Z,18.80
2022-10-21T13:25:18.403Z,18.80
2022-10-21T13:28:06.060Z,18.90
2022-10-21T13:30:59.137Z,18.90
2022-10-21T13:33:51.994Z,18.90
2022-10-21T13:36:39.729Z,19.00
2022-10-21T13:39:28.798Z,19.00
2022-10-21T13:42:18.218Z,19.00
2022-10-21T13:45:08.491Z,19.00
2022-10-21T13:48:01.907Z,19.00
2022-10-21T13:50:49.765Z,18.90
2022-10-21T13:53:43.570Z,19.00
2022-10-21T13:56:31.269Z,19.00
2022-10-21T13:59:24.214Z,18.90
2022-10-21T14:02:23.241Z,19.00
2022-10-21T14:05:24.673Z,19.10
2022-10-21T14:08:18.161Z,19.20
2022-10-21T14:11:08.479Z,19.10
2022-10-21T14:13:55.636Z,19.20
2022-10-21T14:16:44.333Z,19.10
2022-10-21T14:19:32.471Z,19.10
2022-10-21T14:22:19.908Z,19.00
2022-10-21T14:25:07.394Z,19.00
2022-10-21T14:27:53.522Z,19.10
2022-10-21T14:30:40.122Z,18.90
2022-10-21T14:33:29.140Z,19.00
2022-10-21T14:36:18.768Z,18.90
2022-10-21T14:39:07.539Z,18.80
2022-10-21T14:41:55.167Z,18.80
2022-10-21T14:44:42.631Z,18.80
2022-10-21T14:47:28.722Z,18.80
2022-10-21T14:50:18.862Z,18.80
2022-10-21T14:53:11.488Z,18.70
2022-10-21T14:55:58.971Z,18.70
2022-10-21T14:58:46.939Z,18.60
2022-10-21T15:01:32.963Z,18.40
2022-10-21T15:04:38.177Z,18.30
2022-10-21T15:07:30.212Z,18.30
2022-10-21T15:10:18.139Z,18.20
2022-10-21T15:13:15.577Z,18.20
2022-10-21T15:16:02.554Z,18.20
2022-10-21T15:18:52.621Z,18.00
2022-10-21T15:21:41.531Z,18.00
2022-10-21T15:24:34.924Z,18.00
2022-10-21T15:27:26.401Z,18.10
2022-10-21T15:30:16.889Z,18.10
2022-10-21T15:33:03.488Z,18.00
2022-10-21T15:36:00.459Z,18.00
2022-10-21T15:38:47.465Z,18.10
2022-10-21T15:41:35.326Z,18.10
2022-10-21T15:44:23.325Z,18.10
2022-10-21T15:47:11.386Z,18.10
2022-10-21T15:49:57.869Z,18.00
2022-10-21T15:52:44.617Z,17.90
2022-10-21T15:55:33.519Z,17.90
2022-10-21T15:58:21.277Z,17.70
2022-10-21T16:01:10.636Z,17.50
2022-10-21T16:03:57.021Z,17.30
2022-10-21T16:06:47.670Z,17.30
2022-10-21T16:09:33.951Z,17.20
2022-10-21T16:12:21.524Z,17.10
2022-10-21T16:15:09.941Z,17.10
2022-10-21T16:17:57.206Z,17.00
2022-10-21T16:20:43.810Z,16.80
2022-10-21T16:23:31.617Z,16.80
2022-10-21T16:26:22.754Z,16.80
2022-10-21T16:29:11.289Z,16.90
2022-10-21T16:31:59.228Z,16.90
2022-10-21T16:34:45.742Z,17.00
2022-10-21T16:37:34.972Z,17.10
2022-10-21T16:40:22.429Z,17.10
2022-10-21T16:43:08.585Z,17.10
2022-10-21T16:45:54.979Z,17.10
2022-10-21T16:48:42.852Z,17.10
2022-10-21T16:51:30.491Z,17.10
2022-10-21T16:54:17.438Z,17.10
2022-10-21T16:57:07.108Z,17.00
2022-10-21T16:59:53.898Z,16.90
2022-10-21T17:02:40.728Z,16.80
2022-10-21T17:05:28.246Z,16.70
2022-10-21T17:08:14.746Z,16.40
2022-10-21T17:11:01.255Z,16.30
2022-10-21T17:13:47.667Z,16.30
2022-10-21T17:16:34.203Z,16.20
2022-10-21T17:19:20.384Z,16.10
2022-10-21T17:22:08.292Z,16.00
2022-10-21T17:24:54.720Z,16.00
2022-10-21T17:27:41.523Z,16.00
2022-10-21T17:30:28.082Z,16.00
2022-10-21T17:33:14.782Z,16.00
2022-10-21T17:36:01.132Z,16.10
2022-10-21T17:38:48.929Z,16.00
2022-10-21T17:41:35.568Z,16.00
2022-10-21T17:44:22.134Z,16.10
2022-10-21T17:47:08.595Z,16.10
2022-10-21T17:49:55.080Z,16.20
2022-10-21T17:52:42.713Z,16.20
2022-10-21T17:55:30.640Z,16.20
2022-10-21T17:58:18.623Z,16.20
2022-10-21T18:01:07.811Z,16.20
2022-10-21T18:03:54.847Z,16.20
2022-10-21T18:06:41.556Z,16.10
2022-10-21T18:09:27.787Z,16.10
2022-10-21T18:12:15.661Z,16.10
2022-10-21T18:15:02.024Z,16.00
2022-10-21T18:17:48.547Z,15.90
2022-10-21T18:20:36.701Z,16.00
2022-10-21T18:23:24.012Z,16.00
2022-10-21T18:26:12.942Z,16.00
2022-10-21T18:29:01.633Z,16.10
2022-10-21T18:31:47.965Z,16.00
2022-10-21T18:34:34.302Z,16.00
2022-10-21T18:37:20.831Z,16.00
2022-10-21T18:40:08.075Z,15.90
2022-10-21T18:42:54.302Z,15.80
2022-10-21T18:45:45.142Z,15.80
2022-10-21T18:48:31.776Z,15.60
2022-10-21T18:51:19.713Z,15.60
2022-10-21T18:54:05.990Z,15.50
2022-10-21T18:56:52.705Z,15.50
2022-10-21T18:59:39.270Z,15.40
2022-10-21T19:02:27.022Z,15.50
2022-10-21T19:05:13.465Z,15.50
2022-10-21T19:08:00.013Z,15.60
2022-10-21T19:10:46.436Z,15.60
2022-10-21T19:13:33.045Z,15.20
2022-10-21T19:16:19.681Z,15.00
2022-10-21T19:19:07.929Z,15.00
2022-10-21T19:21:54.298Z,15.10
2022-10-21T19:24:40.817Z,15.10
2022-10-21T19:27:27.196Z,15.30
2022-10-21T19:30:13.673Z,15.20
2022-10-21T19:33:02.166Z,15.00
2022-10-21T19:35:50.061Z,15.00
2022-10-21T19:38:44.479Z,14.80
2022-10-21T19:41:31.501Z,14.70
2022-10-21T19:44:17.865Z,14.80
2022-10-21T19:47:04.383Z,14.60
2022-10-21T19:49:50.832Z,14.50
2022-10-21T19:52:38.876Z,14.60
2022-10-21T19:55:25.559Z,14.50
2022-10-21T19:58:12.188Z,14.60
2022-10-21T20:01:02.094Z,14.70
2022-10-21T20:03:50.973Z,14.80
2022-10-21T20:06:38.026Z,14.90
2022-10-21T20:09:25.517Z,15.00
2022-10-21T20:12:11.969Z,15.00
2022-10-21T20:14:58.522Z,15.10
2022-10-21T20:17:45.285Z,15.10
2022-10-21T20:20:31.757Z,15.10
2022-10-21T20:23:18.283Z,15.10
2022-10-21T20:26:06.980Z,15.20
2022-10-21T20:28:53.655Z,15.10
2022-10-21T20:31:40.027Z,15.20
2022-10-21T20:34:26.901Z,15.20
2022-10-21T20:37:13.168Z,15.20
2022-10-21T20:39:59.645Z,15.10
2022-10-21T20:42:49.772Z,15.10
2022-10-21T20:45:36.555Z,15.00
2022-10-21T20:48:23.009Z,15.10
2022-10-21T20:51:10.171Z,15.10
2022-10-21T20:53:57.866Z,15.00
2022-10-21T20:56:44.649Z,15.10
2022-10-21T20:59:32.372Z,15.00
2022-10-21T21:02:18.918Z,15.10
2022-10-21T21:05:05.689Z,15.10
2022-10-21T21:07:52.268Z,15.10
2022-10-21T21:10:38.841Z,15.00
2022-10-21T21:13:25.246Z,14.80
2022-10-21T21:16:13.958Z,14.80
2022-10-21T21:19:02.852Z,14.70
2022-10-21T21:21:49.546Z,14.70
2022-10-21T21:24:35.669Z,14.60
2022-10-21T21:27:22.153Z,14.60
2022-10-21T21:30:09.111Z,14.50
2022-10-21T21:32:56.672Z,14.50
2022-10-21T21:35:42.965Z,14.50
2022-10-21T21:38:29.470Z,14.50
2022-10-21T21:41:16.650Z,14.60
2022-10-21T21:44:03.215Z,14.70
2022-10-21T21:46:49.725Z,14.80
2022-10-21T21:49:37.509Z,14.80
2022-10-21T21:52:24.497Z,15.00
2022-10-21T21:55:10.984Z,15.10
2022-10-21T21:57:57.474Z,15.20
2022-10-21T22:00:43.920Z,15.20
2022-10-21T22:03:30.472Z,15.30
2022-10-21T22:06:18.696Z,15.40
2022-10-21T22:09:09.832Z,15.30
2022-10-21T22:11:56.266Z,15.20
2022-10-21T22:14:42.678Z,15.20
2022-10-21T22:17:29.008Z,15.10
2022-10-21T22:20:15.455Z,15.10
2022-10-21T22:23:03.253Z,15.10
2022-10-21T22:25:49.793Z,15.10
2022-10-21T22:28:36.186Z,15.00
2022-10-21T22:31:27.428Z,15.10
2022-10-21T22:34:16.936Z,15.10
2022-10-21T22:37:03.581Z,15.10
2022-10-21T22:39:51.425Z,15.20
2022-10-21T22:42:38.022Z,15.20
2022-10-21T22:45:24.461Z,15.30
2022-10-21T22:48:10.873Z,15.30
2022-10-21T22:50:57.308Z,15.30
2022-10-21T22:53:43.853Z,15.30
2022-10-21T22:56:32.005Z,15.20
2022-10-21T22:59:18.234Z,15.20
2022-10-21T23:02:04.810Z,15.20
2022-10-21T23:04:50.917Z,15.20
2022-10-21T23:07:37.353Z,15.20
2022-10-21T23:10:23.714Z,15.20
2022-10-21T23:13:11.568Z,15.30
2022-10-21T23:15:57.928Z,15.30
2022-10-21T23:18:44.427Z,15.20
2022-10-21T23:21:30.736Z,15.20
2022-10-21T23:24:17.216Z,15.30
2022-10-21T23:27:03.805Z,15.30
2022-10-21T23:29:51.528Z,15.40
2022-10-21T23:32:38.609Z,15.40
2022-10-21T23:35:25.213Z,15.30
2022-10-21T23:38:11.605Z,15.20
2022-10-21T23:40:58.126Z,15.30
2022-10-21T23:43:44.674Z,15.40
2022-10-21T23:46:32.383Z,15.30
2022-10-21T23:49:18.782Z,15.00
2022-10-21T23:52:06.135Z,14.90
2022-10-21T23:54:52.273Z,14.80
2022-10-21T23:57:39.140Z,14.80
